Time;durP1;ratioP1;P1;durP2;ratioP2;P2;SDS_P1;SDS_P2;PMS_P1;PMS_P2;Temp;Humidity;BMP_temperature;BMP_pressure;BME280_temperature;BME280_humidity;BME280_pressure;Samples;Min_cycle;Max_cycle;Signal;HPM_P1;HPM_P2
2022/11/15 00:00:56;;;;;;;18.65;8.85;;;5.60;99.90;;;;;;6259014;22;20030;-87
2022/11/15 00:03:44;;;;;;;18.40;10.07;;;5.80;99.90;;;;;;6279238;22;20419;-86
2022/11/15 00:06:32;;;;;;;30.88;13.90;;;5.80;99.90;;;;;;6278154;22;20081;-85
2022/11/15 00:09:19;;;;;;;17.10;8.95;;;5.80;99.90;;;;;;6279132;22;20055;-85
2022/11/15 00:12:10;;;;;;;17.83;9.82;;;5.80;99.90;;;;;;6255890;22;20020;-83
2022/11/15 00:14:59;;;;;;;18.23;9.35;;;5.90;99.90;;;;;;6279805;22;20024;-85
2022/11/15 00:17:50;;;;;;;23.50;11.88;;;5.80;99.90;;;;;;6257670;22;20352;-85
2022/11/15 00:20:39;;;;;;;21.95;11.63;;;5.60;99.90;;;;;;6256773;22;20108;-85
2022/11/15 00:23:26;;;;;;;18.60;11.20;;;5.40;99.90;;;;;;6280999;22;20338;-85
2022/11/15 00:26:15;;;;;;;18.35;10.50;;;5.20;99.90;;;;;;6255717;22;20111;-86
2022/11/15 00:29:02;;;;;;;17.75;10.68;;;5.10;99.90;;;;;;6278976;22;20035;-85
2022/11/15 00:31:54;;;;;;;17.40;10.57;;;5.00;99.90;;;;;;6258820;22;20102;-84
2022/11/15 00:34:41;;;;;;;16.65;11.18;;;4.90;99.90;;;;;;6258038;22;20077;-85
2022/11/15 00:37:29;;;;;;;18.08;11.80;;;4.80;99.90;;;;;;6257313;22;20081;-85
2022/11/15 00:40:18;;;;;;;20.10;11.95;;;4.70;99.90;;;;;;6258490;22;20074;-85
2022/11/15 00:43:06;;;;;;;20.27;12.63;;;4.60;99.90;;;;;;6280923;22;20035;-85
2022/11/15 00:45:53;;;;;;;22.65;13.60;;;4.50;99.90;;;;;;6259129;22;20039;-85
2022/11/15 00:48:40;;;;;;;23.95;14.73;;;4.50;99.90;;;;;;6257629;22;20027;-85
2022/11/15 00:51:27;;;;;;;25.13;14.57;;;4.50;99.90;;;;;;6259024;22;20030;-87
2022/11/15 00:54:15;;;;;;;22.33;14.20;;;4.50;99.90;;;;;;6276438;22;20024;-85
2022/11/15 00:57:05;;;;;;;21.52;13.63;;;4.40;99.90;;;;;;6276276;22;20360;-84
2022/11/15 00:59:52;;;;;;;21.42;12.88;;;4.40;99.90;;;;;;6277392;22;20298;-86
2022/11/15 01:02:42;;;;;;;23.38;12.45;;;4.40;99.90;;;;;;6256567;22;20362;-85
2022/11/15 01:05:32;;;;;;;15.95;11.52;;;4.40;99.90;;;;;;6275705;22;20292;-86
2022/11/15 01:08:19;;;;;;;15.93;10.82;;;4.40;99.90;;;;;;6287318;22;20023;-85
2022/11/15 01:11:10;;;;;;;11.05;7.57;;;4.50;99.90;;;;;;6276274;22;20368;-86
2022/11/15 01:13:59;;;;;;;16.83;10.27;;;4.70;99.90;;;;;;6278321;22;20057;-85
2022/11/15 01:16:46;;;;;;;18.33;10.35;;;4.90;99.90;;;;;;6274855;22;20024;-86
2022/11/15 01:19:33;;;;;;;16.88;10.68;;;4.90;99.90;;;;;;6276689;22;20022;-86
2022/11/15 01:22:20;;;;;;;13.57;9.63;;;4.90;99.90;;;;;;6278953;22;20091;-86
2022/11/15 01:25:07;;;;;;;14.52;9.82;;;4.90;99.90;;;;;;6255637;22;20158;-86
2022/11/15 01:27:54;;;;;;;16.55;8.95;;;5.00;99.90;;;;;;6255476;22;20047;-85
2022/11/15 01:30:41;;;;;;;17.38;9.55;;;5.10;99.90;;;;;;6276711;22;20059;-86
2022/11/15 01:33:30;;;;;;;13.35;9.75;;;5.20;99.90;;;;;;6279164;22;20106;-85
2022/11/15 01:36:23;;;;;;;20.48;10.35;;;5.40;99.90;;;;;;6277138;22;20020;-85
2022/11/15 01:39:13;;;;;;;21.77;10.40;;;5.50;99.90;;;;;;6276842;22;20032;-86
2022/11/15 01:42:00;;;;;;;16.63;9.60;;;5.50;99.90;;;;;;6278150;22;20024;-86
2022/11/15 01:44:52;;;;;;;12.90;9.52;;;5.50;99.90;;;;;;6277077;22;20034;-85
2022/11/15 01:47:46;;;;;;;12.23;9.35;;;5.50;99.90;;;;;;6276945;22;20062;-85
2022/11/15 01:50:35;;;;;;;15.27;9.95;;;5.40;99.90;;;;;;6276860;22;20389;-86
2022/11/15 01:53:24;;;;;;;13.73;7.82;;;5.30;99.90;;;;;;6254130;22;20120;-86
2022/11/15 01:56:19;;;;;;;13.75;8.70;;;5.20;99.90;;;;;;6276926;22;20098;-86
2022/11/15 01:59:11;;;;;;;12.18;8.07;;;5.20;99.90;;;;;;6277650;22;20050;-86
2022/11/15 02:02:00;;;;;;;13.73;7.78;;;5.20;99.90;;;;;;6254895;22;20023;-86
2022/11/15 02:04:48;;;;;;;12.90;8.40;;;5.20;99.90;;;;;;6278543;22;20055;-85
2022/11/15 02:07:36;;;;;;;12.05;8.45;;;5.10;99.90;;;;;;6260149;22;20079;-86
2022/11/15 02:10:24;;;;;;;14.50;7.72;;;5.20;99.90;;;;;;6277723;22;20027;-85
2022/11/15 02:13:11;;;;;;;15.43;8.55;;;5.10;99.90;;;;;;6281090;22;20141;-86
2022/11/15 02:16:23;;;;;;;12.82;7.90;;;5.10;99.90;;;;;;6278357;22;20484;-86
2022/11/15 02:19:24;;;;;;;11.90;8.50;;;5.10;99.90;;;;;;6281736;22;20486;-85
2022/11/15 02:22:45;;;;;;;11.45;7.35;;;5.20;99.90;;;;;;6281674;22;20064;-85
2022/11/15 02:26:00;;;;;;;11.82;7.43;;;5.30;99.90;;;;;;6283084;22;20032;-86
2022/11/15 02:29:13;;;;;;;14.55;7.07;;;5.40;99.90;;;;;;6284939;22;20051;-86
2022/11/15 02:32:15;;;;;;;13.02;7.50;;;5.50;99.90;;;;;;6278766;22;20047;-86
2022/11/15 02:35:16;;;;;;;6.03;5.13;;;5.50;99.90;;;;;;6279456;22;20414;-86
2022/11/15 02:38:27;;;;;;;12.60;6.47;;;5.50;99.90;;;;;;6279816;22;20031;-86
2022/11/15 02:41:23;;;;;;;11.38;6.07;;;5.50;99.90;;;;;;6278194;22;20414;-85
2022/11/15 02:44:19;;;;;;;9.43;6.80;;;5.50;99.90;;;;;;6280070;22;20020;-86
2022/11/15 02:47:13;;;;;;;10.63;6.00;;;5.50;99.90;;;;;;6280299;22;20388;-85
2022/11/15 02:50:08;;;;;;;12.43;6.53;;;5.50;99.90;;;;;;6279647;22;20043;-86
2022/11/15 02:52:56;;;;;;;8.88;6.10;;;5.50;99.90;;;;;;6257007;22;20113;-86
2022/11/15 02:55:50;;;;;;;10.43;6.10;;;5.50;99.90;;;;;;6277421;22;20095;-85
2022/11/15 02:58:58;;;;;;;9.55;6.20;;;5.60;99.90;;;;;;6278569;22;20024;-86
2022/11/15 03:01:45;;;;;;;8.98;5.68;;;5.60;99.90;;;;;;6276779;22;20023;-86
2022/11/15 03:04:50;;;;;;;7.75;6.10;;;5.70;99.90;;;;;;6278354;22;20385;-86
2022/11/15 03:07:47;;;;;;;9.32;6.05;;;5.80;99.90;;;;;;6280418;22;20110;-85
2022/11/15 03:10:56;;;;;;;9.88;5.82;;;5.80;99.90;;;;;;6279308;22;20016;-85
2022/11/15 03:14:02;;;;;;;7.47;5.07;;;5.70;99.90;;;;;;6279169;22;20058;-85
2022/11/15 03:17:01;;;;;;;11.50;5.82;;;5.70;99.90;;;;;;6255964;22;20099;-86
2022/11/15 03:19:52;;;;;;;10.00;5.75;;;5.70;99.90;;;;;;6256172;22;20051;-85
2022/11/15 03:22:43;;;;;;;9.85;5.00;;;5.70;99.90;;;;;;6278595;22;20545;-86
2022/11/15 03:25:33;;;;;;;7.00;5.05;;;5.80;99.90;;;;;;6279289;22;20112;-85
2022/11/15 03:28:26;;;;;;;8.70;5.97;;;5.80;99.90;;;;;;6279775;22;20158;-84
2022/11/15 03:34:32;;;;;;;9.07;5.80;;;5.80;99.90;;;;;;6276519;22;20023;-85
2022/11/15 03:37:27;;;;;;;8.65;6.15;;;5.70;99.90;;;;;;6279685;22;20030;-84
2022/11/15 03:40:16;;;;;;;12.55;7.53;;;5.70;99.90;;;;;;6279878;22;20094;-85
2022/11/15 03:43:30;;;;;;;9.85;6.22;;;5.70;99.90;;;;;;6255261;22;20055;-85
2022/11/15 03:46:27;;;;;;;9.57;6.60;;;5.60;99.90;;;;;;6276721;22;20028;-85
2022/11/15 03:49:33;;;;;;;11.68;5.93;;;5.70;99.90;;;;;;6279218;22;20444;-85
2022/11/15 03:52:24;;;;;;;12.88;6.70;;;5.70;99.90;;;;;;6277933;22;20125;-85
2022/11/15 03:55:16;;;;;;;8.02;5.78;;;5.70;99.90;;;;;;6279038;22;20099;-85
2022/11/15 03:58:03;;;;;;;10.80;6.07;;;5.80;99.90;;;;;;6280407;22;20371;-85
2022/11/15 04:00:50;;;;;;;8.00;5.47;;;5.70;99.90;;;;;;6278066;22;20107;-85
2022/11/15 04:03:39;;;;;;;9.88;6.00;;;5.70;99.90;;;;;;6276386;22;20146;-85
2022/11/15 04:06:27;;;;;;;8.40;5.38;;;5.60;99.90;;;;;;6276342;22;20039;-85
2022/11/15 04:09:14;;;;;;;8.90;5.60;;;5.60;99.90;;;;;;6257523;22;20418;-84
2022/11/15 04:12:01;;;;;;;10.35;5.63;;;5.60;99.90;;;;;;6277587;22;20023;-85
2022/11/15 04:15:06;;;;;;;7.22;5.45;;;5.70;99.90;;;;;;6255067;22;20042;-85
2022/11/15 04:17:57;;;;;;;10.48;5.53;;;5.70;99.90;;;;;;6256491;22;20032;-85
2022/11/15 04:26:40;;;;;;;9.57;5.60;;;5.70;99.90;;;;;;6278166;22;20109;-86
2022/11/15 04:29:36;;;;;;;8.35;5.43;;;5.70;99.90;;;;;;6280224;22;20106;-85
2022/11/15 04:32:25;;;;;;;7.53;5.35;;;5.80;99.90;;;;;;6278897;22;20031;-85
2022/11/15 04:35:15;;;;;;;10.23;6.10;;;5.80;99.90;;;;;;6278849;22;20046;-84
2022/11/15 04:38:03;;;;;;;10.63;6.80;;;5.80;99.90;;;;;;6278697;22;20103;-86
2022/11/15 04:40:53;;;;;;;9.30;5.80;;;5.90;99.90;;;;;;6259429;22;20031;-85
2022/11/15 04:43:40;;;;;;;7.82;5.72;;;5.90;99.90;;;;;;6280448;22;20368;-85
2022/11/15 04:46:27;;;;;;;6.72;5.63;;;5.90;99.90;;;;;;6256541;22;20103;-85
2022/11/15 04:49:14;;;;;;;9.10;6.18;;;5.90;99.90;;;;;;6257604;22;20051;-85
2022/11/15 04:52:01;;;;;;;10.18;6.25;;;5.90;99.90;;;;;;6255770;22;20105;-85
2022/11/15 04:54:52;;;;;;;10.00;6.63;;;5.90;99.90;;;;;;6278766;22;20023;-86
2022/11/15 04:57:39;;;;;;;10.90;5.40;;;5.80;99.90;;;;;;6278913;22;20403;-85
2022/11/15 05:00:28;;;;;;;10.23;5.90;;;5.70;99.90;;;;;;6277667;22;20326;-85
2022/11/15 05:06:22;;;;;;;8.85;6.03;;;5.70;99.90;;;;;;6276354;22;20027;-85
2022/11/15 05:09:10;;;;;;;16.65;6.95;;;5.60;99.90;;;;;;6277589;22;20024;-85
2022/11/15 05:11:57;;;;;;;17.15;6.53;;;5.60;99.90;;;;;;6277231;22;20407;-85
2022/11/15 05:14:44;;;;;;;9.30;6.60;;;5.60;99.90;;;;;;6276135;22;20450;-83
2022/11/15 05:17:31;;;;;;;15.07;9.15;;;5.70;99.90;;;;;;6277626;22;20034;-85
2022/11/15 05:20:21;;;;;;;11.18;7.15;;;5.60;99.90;;;;;;6279556;22;20446;-85
2022/11/15 05:23:10;;;;;;;10.90;8.35;;;5.60;99.90;;;;;;6276193;22;20028;-85
2022/11/15 05:26:01;;;;;;;13.50;7.97;;;5.60;99.90;;;;;;6277168;22;20099;-85
2022/11/15 05:28:57;;;;;;;25.63;14.20;;;5.50;99.90;;;;;;6277161;22;20027;-85
2022/11/15 05:32:08;;;;;;;17.10;10.68;;;5.60;99.90;;;;;;6255078;22;20055;-85
2022/11/15 05:34:55;;;;;;;15.10;9.88;;;5.60;99.90;;;;;;6256413;22;20023;-82
2022/11/15 05:37:45;;;;;;;14.40;9.05;;;5.60;99.90;;;;;;6256856;22;20030;-83
2022/11/15 05:40:33;;;;;;;12.05;8.98;;;5.50;99.90;;;;;;6281297;22;20320;-82
2022/11/15 05:43:22;;;;;;;15.43;8.77;;;5.50;99.90;;;;;;6255186;22;20113;-83
2022/11/15 05:46:09;;;;;;;11.20;8.40;;;5.40;99.90;;;;;;6256758;22;20027;-83
2022/11/15 05:48:59;;;;;;;15.30;8.52;;;5.40;99.90;;;;;;6278320;22;20411;-83
2022/11/15 05:51:48;;;;;;;14.07;8.35;;;5.30;99.90;;;;;;6278530;22;20051;-83
2022/11/15 05:54:36;;;;;;;14.65;9.30;;;5.30;99.90;;;;;;6276806;22;20031;-83
2022/11/15 05:57:24;;;;;;;13.30;8.57;;;5.20;99.90;;;;;;6278368;22;20102;-84
2022/11/15 06:00:11;;;;;;;14.48;8.52;;;5.10;99.90;;;;;;6255881;22;20557;-84
2022/11/15 06:03:01;;;;;;;16.70;9.20;;;5.00;99.90;;;;;;6277522;22;20450;-82
2022/11/15 06:05:48;;;;;;;15.20;8.95;;;5.00;99.90;;;;;;6254860;22;20106;-85
2022/11/15 06:08:35;;;;;;;13.13;8.13;;;5.00;99.90;;;;;;6275751;22;20019;-84
2022/11/15 06:11:25;;;;;;;12.00;8.20;;;5.00;99.90;;;;;;6278328;22;20098;-83
2022/11/15 06:14:14;;;;;;;12.15;7.88;;;5.00;99.90;;;;;;6275150;22;20028;-82
2022/11/15 06:17:02;;;;;;;13.13;8.20;;;5.00;99.90;;;;;;6277341;22;20114;-84
2022/11/15 06:19:57;;;;;;;14.65;8.63;;;4.90;99.90;;;;;;6275056;22;20410;-84
2022/11/15 06:22:44;;;;;;;12.32;7.40;;;4.90;99.90;;;;;;6279343;22;20031;-83
2022/11/15 06:25:31;;;;;;;16.40;8.00;;;4.90;99.90;;;;;;6275242;22;20072;-84
2022/11/15 06:28:19;;;;;;;13.63;7.65;;;4.90;99.90;;;;;;6276587;22;20111;-85
2022/11/15 06:31:13;;;;;;;14.95;8.45;;;4.80;99.90;;;;;;6277368;22;20107;-85
2022/11/15 06:34:01;;;;;;;11.15;7.70;;;4.80;99.90;;;;;;6255518;22;20115;-85
2022/11/15 06:36:51;;;;;;;13.07;8.30;;;4.90;99.90;;;;;;6278938;22;20422;-83
2022/11/15 06:39:38;;;;;;;11.98;7.45;;;5.00;99.90;;;;;;6274946;22;20050;-86
2022/11/15 06:42:25;;;;;;;14.05;8.30;;;5.00;99.90;;;;;;6275515;22;20437;-84
2022/11/15 06:45:13;;;;;;;12.65;8.35;;;5.10;99.90;;;;;;6275082;22;20095;-82
2022/11/15 06:48:00;;;;;;;11.32;8.02;;;5.20;99.90;;;;;;6274443;22;20354;-82
2022/11/15 06:50:58;;;;;;;13.43;8.82;;;5.30;99.90;;;;;;6274779;22;20094;-81
2022/11/15 06:53:46;;;;;;;14.63;9.32;;;5.40;99.90;;;;;;6276661;22;20407;-81
2022/11/15 06:56:36;;;;;;;16.90;9.60;;;5.50;99.90;;;;;;6273955;22;20089;-82
2022/11/15 06:59:29;;;;;;;17.38;8.82;;;5.60;99.90;;;;;;6276921;22;20034;-82
2022/11/15 07:02:20;;;;;;;13.23;9.60;;;5.60;99.90;;;;;;6274967;22;20020;-84
2022/11/15 07:05:07;;;;;;;15.43;8.43;;;5.70;99.90;;;;;;6278364;22;20101;-81
2022/11/15 07:07:55;;;;;;;9.77;7.85;;;5.80;99.90;;;;;;6276744;22;20484;-80
2022/11/15 07:10:42;;;;;;;15.98;10.75;;;5.90;99.90;;;;;;6277222;22;20032;-81
2022/11/15 07:13:33;;;;;;;14.57;9.73;;;6.00;99.90;;;;;;6276478;22;20027;-83
2022/11/15 07:16:24;;;;;;;16.00;11.27;;;6.20;99.90;;;;;;6276428;22;20019;-81
2022/11/15 07:19:11;;;;;;;20.80;12.90;;;6.20;99.90;;;;;;6257430;22;20038;-81
2022/11/15 07:21:58;;;;;;;21.85;12.50;;;6.30;99.90;;;;;;6278864;22;20081;-82
2022/11/15 07:24:45;;;;;;;13.20;10.07;;;6.30;99.90;;;;;;6275302;22;20020;-82
2022/11/15 07:27:33;;;;;;;11.05;7.60;;;6.40;99.90;;;;;;6275718;22;20028;-83
2022/11/15 07:30:20;;;;;;;11.10;7.60;;;6.60;99.90;;;;;;6278230;22;20085;-84
2022/11/15 07:33:07;;;;;;;13.65;8.73;;;6.90;99.90;;;;;;6257358;22;20028;-84
2022/11/15 07:36:01;;;;;;;12.27;9.68;;;7.30;99.90;;;;;;6276706;22;20107;-85
2022/11/15 07:38:50;;;;;;;20.02;13.07;;;7.80;99.90;;;;;;6278408;22;20414;-84
2022/11/15 07:41:38;;;;;;;14.68;9.18;;;8.60;99.90;;;;;;6254814;22;20038;-83
2022/11/15 07:44:28;;;;;;;12.98;5.75;;;9.00;99.90;;;;;;6254788;22;20304;-84
2022/11/15 07:47:17;;;;;;;10.15;4.97;;;9.10;99.90;;;;;;6256337;22;20035;-85
2022/11/15 07:50:07;;;;;;;9.07;4.90;;;9.10;99.90;;;;;;6276316;22;20027;-85
2022/11/15 07:52:56;;;;;;;5.38;3.80;;;9.10;99.90;;;;;;6277174;22;20023;-86
2022/11/15 07:55:44;;;;;;;4.97;3.28;;;9.20;99.90;;;;;;6253653;22;20051;-85
2022/11/15 07:58:31;;;;;;;8.20;3.17;;;9.30;1.00;;;;;;6275391;22;20112;-84
2022/11/15 08:01:20;;;;;;;6.57;3.42;;;9.20;19.20;;;;;;6273662;22;20110;-83
2022/11/15 08:04:07;;;;;;;8.52;4.65;;;9.20;99.90;;;;;;6278029;22;20034;-83
2022/11/15 08:06:54;;;;;;;8.27;4.68;;;9.30;99.90;;;;;;6255195;22;20436;-83
2022/11/15 08:09:43;;;;;;;5.70;4.00;;;9.30;99.90;;;;;;6276490;22;20031;-84
2022/11/15 08:12:31;;;;;;;6.43;4.32;;;9.30;58.20;;;;;;6255766;22;20150;-83
2022/11/15 08:15:19;;;;;;;5.47;3.95;;;9.30;1.00;;;;;;6254556;22;20020;-83
2022/11/15 08:18:11;;;;;;;5.72;3.78;;;9.30;99.90;;;;;;6236188;22;20105;-81
2022/11/15 08:21:00;;;;;;;7.50;3.67;;;9.50;99.90;;;;;;6276534;22;20024;-83
2022/11/15 08:23:50;;;;;;;5.45;3.80;;;9.70;99.90;;;;;;6279418;22;20093;-83
2022/11/15 08:26:40;;;;;;;7.03;4.38;;;9.80;99.90;;;;;;6266077;22;20051;-82
2022/11/15 08:29:27;;;;;;;9.93;4.30;;;10.10;25.20;;;;;;6285608;22;20028;-82
2022/11/15 08:32:24;;;;;;;5.03;3.90;;;10.40;1.00;;;;;;6290532;22;20050;-82
2022/11/15 08:35:11;;;;;;;7.22;4.65;;;10.60;99.90;;;;;;6290717;22;20027;-83
2022/11/15 08:38:00;;;;;;;7.22;4.18;;;10.90;99.90;;;;;;6297997;22;20047;-84
2022/11/15 08:40:47;;;;;;;7.63;3.35;;;11.20;99.90;;;;;;6299493;22;20430;-83
2022/11/15 08:43:35;;;;;;;7.45;3.83;;;11.80;37.70;;;;;;6267030;22;20024;-83
2022/11/15 08:46:23;;;;;;;8.80;3.35;;;12.30;1.00;;;;;;6283867;22;20062;-83
2022/11/15 08:49:13;;;;;;;5.35;3.47;;;12.40;1.00;;;;;;6280109;22;20081;-83
2022/11/15 08:52:00;;;;;;;8.02;3.78;;;12.40;1.00;;;;;;6259864;22;20055;-82
2022/11/15 08:54:50;;;;;;;6.22;3.92;;;12.20;1.00;;;;;;6257841;22;20113;-83
2022/11/15 08:57:38;;;;;;;6.95;4.18;;;12.20;1.00;;;;;;6279016;22;20385;-83
2022/11/15 09:00:28;;;;;;;7.55;4.95;;;12.30;1.00;;;;;;6276090;22;20035;-83
2022/11/15 09:03:15;;;;;;;7.07;3.92;;;12.40;1.00;;;;;;6277202;22;20043;-83
2022/11/15 09:06:04;;;;;;;5.68;3.40;;;12.60;1.00;;;;;;6278728;22;20110;-81
2022/11/15 09:08:52;;;;;;;3.60;2.95;;;12.80;1.00;;;;;;6275979;22;20024;-81
2022/11/15 09:11:39;;;;;;;7.90;3.88;;;13.20;99.90;;;;;;6274868;22;20024;-83
2022/11/15 09:14:30;;;;;;;7.47;3.92;;;13.10;99.90;;;;;;6280457;22;20024;-85
2022/11/15 09:17:18;;;;;;;6.25;4.25;;;12.90;99.90;;;;;;6257668;22;20070;-82
2022/11/15 09:20:13;;;;;;;10.00;3.35;;;13.00;99.90;;;;;;6274549;22;20039;-82
2022/11/15 09:23:04;;;;;;;4.50;3.40;;;13.60;99.90;;;;;;6255546;22;20103;-83
2022/11/15 09:25:53;;;;;;;7.40;3.30;;;14.50;99.90;;;;;;6277708;22;20024;-83
2022/11/15 09:28:42;;;;;;;8.55;2.50;;;15.30;99.90;;;;;;6278469;22;20030;-83
2022/11/15 09:31:29;;;;;;;3.92;2.40;;;15.60;99.90;;;;;;6277444;22;20030;-82
2022/11/15 09:34:17;;;;;;;6.20;2.78;;;16.20;99.90;;;;;;6275255;22;20077;-83
2022/11/15 09:37:06;;;;;;;7.68;2.83;;;16.30;99.90;;;;;;6278851;22;20272;-83
2022/11/15 09:39:53;;;;;;;5.45;3.03;;;15.80;99.90;;;;;;6275504;22;20023;-84
2022/11/15 09:43:10;;;;;;;6.20;2.67;;;15.10;99.90;;;;;;6276457;22;20012;-83
2022/11/15 09:46:15;;;;;;;5.43;2.83;;;14.90;99.90;;;;;;6254175;22;20024;-82
2022/11/15 09:49:03;;;;;;;3.80;2.58;;;14.90;99.90;;;;;;6275042;22;20046;-83
2022/11/15 09:51:56;;;;;;;8.88;2.65;;;14.90;99.90;;;;;;6276553;22;20051;-83
2022/11/15 09:54:45;;;;;;;;;;;14.70;99.90;;;;;;6277124;22;20023;-84
2022/11/15 09:58:12;;;;;;;11.02;3.05;;;14.40;99.90;;;;;;6236772;22;19915;-84
2022/11/15 10:01:10;;;;;;;6.35;3.22;;;14.20;99.90;;;;;;6256591;22;20034;-82
2022/11/15 10:03:59;;;;;;;6.07;2.83;;;14.30;99.90;;;;;;6272905;22;20414;-82
2022/11/15 10:07:04;;;;;;;4.97;2.85;;;14.50;99.90;;;;;;6256747;22;20153;-83
2022/11/15 10:10:15;;;;;;;6.75;3.20;;;14.30;99.90;;;;;;6251824;22;20025;-84
2022/11/15 10:13:04;;;;;;;6.10;3.00;;;14.40;99.90;;;;;;6277071;22;20023;-85
2022/11/15 10:15:59;;;;;;;6.78;3.33;;;14.70;99.90;;;;;;6252882;22;20024;-83
2022/11/15 10:19:17;;;;;;;7.90;3.35;;;14.80;99.90;;;;;;6254544;22;20365;-83
2022/11/15 10:22:14;;;;;;;4.93;3.10;;;14.50;99.90;;;;;;6278702;22;20409;-85
2022/11/15 10:25:23;;;;;;;7.05;3.22;;;14.40;99.90;;;;;;6275854;22;20019;-85
2022/11/15 10:28:27;;;;;;;5.20;2.88;;;14.20;99.90;;;;;;6257008;22;20085;-86
2022/11/15 10:31:29;;;;;;;5.70;2.80;;;14.00;99.90;;;;;;6276133;22;20032;-85
2022/11/15 10:34:20;;;;;;;6.38;3.60;;;13.70;99.90;;;;;;6276206;22;20032;-84
2022/11/15 10:37:07;;;;;;;5.38;2.05;;;13.70;99.90;;;;;;6234552;22;20020;-83
2022/11/15 10:40:17;;;;;;;4.38;2.20;;;13.70;99.90;;;;;;6256308;22;20327;-84
2022/11/15 10:43:09;;;;;;;4.05;1.63;;;13.40;99.90;;;;;;6279201;22;20020;-83
2022/11/15 10:46:20;;;;;;;5.20;1.87;;;13.20;99.90;;;;;;6277084;22;20035;-84
2022/11/15 10:49:30;;;;;;;4.15;1.85;;;13.00;99.90;;;;;;6260080;22;20501;-82
2022/11/15 10:52:20;;;;;;;3.38;1.90;;;12.80;99.90;;;;;;6278906;22;20028;-82
2022/11/15 10:55:18;;;;;;;2.85;2.17;;;12.70;99.90;;;;;;6279749;22;20027;-84
2022/11/15 10:58:20;;;;;;;2.75;1.70;;;12.60;99.90;;;;;;6278088;22;20316;-84
2022/11/15 11:01:17;;;;;;;4.63;1.60;;;12.60;99.90;;;;;;6277711;22;20020;-83
2022/11/15 11:04:10;;;;;;;3.00;1.70;;;12.60;99.90;;;;;;6278922;22;20049;-84
2022/11/15 11:06:59;;;;;;;2.65;1.70;;;12.80;99.90;;;;;;6257078;22;20027;-84
2022/11/15 11:10:03;;;;;;;6.07;1.77;;;12.80;99.90;;;;;;6278994;22;20031;-83
2022/11/15 11:13:14;;;;;;;4.85;1.88;;;12.80;99.90;;;;;;6261620;22;20094;-86
2022/11/15 11:16:35;;;;;;;4.45;1.55;;;12.80;99.90;;;;;;6278386;22;20051;-84
2022/11/15 11:19:40;;;;;;;5.18;2.13;;;12.90;99.90;;;;;;6276667;22;20486;-86
2022/11/15 11:22:40;;;;;;;;;;;12.90;99.90;;;;;;6278350;22;20027;-85
2022/11/15 11:25:42;;;;;;;4.20;2.17;;;13.00;99.90;;;;;;6276014;22;19998;-86
2022/11/15 11:28:50;;;;;;;2.03;1.80;;;12.90;99.90;;;;;;6276634;22;20032;-84
2022/11/15 11:31:49;;;;;;;2.70;2.00;;;12.90;99.90;;;;;;6283102;22;20111;-84
2022/11/15 11:34:55;;;;;;;5.13;1.80;;;13.10;99.90;;;;;;6275962;22;20032;-82
2022/11/15 11:38:00;;;;;;;4.07;1.90;;;13.20;99.90;;;;;;6252826;22;20518;-86
2022/11/15 11:41:25;;;;;;;2.85;1.63;;;13.20;99.90;;;;;;6277818;22;20121;-86
2022/11/15 11:44:15;;;;;;;2.10;1.70;;;13.10;99.90;;;;;;6277625;22;20378;-85
2022/11/15 11:47:24;;;;;;;4.70;1.77;;;13.10;99.90;;;;;;6277533;22;20024;-86
2022/11/15 11:50:26;;;;;;;3.60;1.80;;;13.20;99.90;;;;;;6278219;22;20116;-85
2022/11/15 11:53:31;;;;;;;2.47;1.63;;;13.30;99.90;;;;;;6256121;22;20086;-87
2022/11/15 11:56:32;;;;;;;5.82;1.77;;;13.30;99.90;;;;;;6277511;22;20055;-85
2022/11/15 12:00:04;;;;;;;4.97;1.63;;;13.30;99.90;;;;;;6275813;22;20102;-84
2022/11/15 12:03:11;;;;;;;2.53;1.70;;;13.30;99.90;;;;;;6279857;22;20099;-86
2022/11/15 12:06:05;;;;;;;3.05;1.67;;;13.30;99.90;;;;;;6280094;22;20023;-85
2022/11/15 12:09:02;;;;;;;4.90;1.77;;;13.20;99.90;;;;;;6280130;22;20439;-85
2022/11/15 12:12:06;;;;;;;4.30;2.55;;;13.20;99.90;;;;;;6276992;22;20024;-85
2022/11/15 12:15:09;;;;;;;4.70;1.75;;;13.20;99.90;;;;;;6255395;22;20023;-84
2022/11/15 12:17:58;;;;;;;5.75;1.85;;;13.10;99.90;;;;;;6255079;22;20023;-85
2022/11/15 12:20:57;;;;;;;3.22;1.75;;;13.00;99.90;;;;;;6277565;22;20445;-84
2022/11/15 12:23:54;;;;;;;2.88;1.77;;;13.00;99.90;;;;;;6276735;22;20024;-84
2022/11/15 12:26:52;;;;;;;3.15;2.20;;;13.00;99.90;;;;;;6276143;22;20024;-83
2022/11/15 12:29:52;;;;;;;1.98;1.60;;;12.90;99.90;;;;;;6278220;22;20023;-83
2022/11/15 12:32:57;;;;;;;4.32;1.95;;;12.90;99.90;;;;;;6256014;22;20023;-82
2022/11/15 12:35:59;;;;;;;6.20;2.15;;;12.90;99.90;;;;;;6254691;22;20039;-86
2022/11/15 12:39:00;;;;;;;4.40;2.10;;;12.90;99.90;;;;;;6277136;22;20362;-86
2022/11/15 12:41:56;;;;;;;5.97;1.90;;;12.90;99.90;;;;;;6278547;22;20466;-85
2022/11/15 12:44:49;;;;;;;4.93;1.70;;;13.00;99.90;;;;;;6257885;22;20090;-87
2022/11/15 12:47:36;;;;;;;4.05;1.88;;;13.00;99.90;;;;;;6278437;22;20029;-86
2022/11/15 12:50:54;;;;;;;2.45;1.77;;;13.10;99.90;;;;;;6276910;22;20031;-87
2022/11/15 12:53:42;;;;;;;2.47;1.70;;;13.20;99.90;;;;;;6257876;22;20036;-88
2022/11/15 12:56:29;;;;;;;5.57;1.80;;;13.20;99.90;;;;;;6277886;22;20086;-88
2022/11/15 12:59:49;;;;;;;5.00;2.00;;;13.20;99.90;;;;;;6277686;22;20026;-88
2022/11/15 13:02:48;;;;;;;1.73;1.45;;;13.10;99.90;;;;;;6278854;22;20030;-87
2022/11/15 13:05:36;;;;;;;9.32;2.28;;;13.10;99.90;;;;;;6275743;22;20027;-88
2022/11/15 13:08:47;;;;;;;3.60;1.80;;;13.10;99.90;;;;;;6255155;22;20063;-86
2022/11/15 13:11:46;;;;;;;4.22;2.03;;;13.00;99.90;;;;;;6256962;22;20463;-86
2022/11/15 13:14:52;;;;;;;2.75;1.83;;;13.00;99.90;;;;;;6256005;22;20028;-88
2022/11/15 13:17:47;;;;;;;5.72;2.00;;;13.00;99.90;;;;;;6277298;22;20024;-89
2022/11/15 13:20:34;;;;;;;4.38;2.00;;;12.90;99.90;;;;;;6257143;22;20034;-87
2022/11/15 13:23:24;;;;;;;3.67;2.10;;;12.90;99.90;;;;;;6278825;22;20112;-88
2022/11/15 13:26:20;;;;;;;2.92;1.95;;;12.80;99.90;;;;;;6278608;22;20055;-87
2022/11/15 13:29:19;;;;;;;4.32;2.20;;;12.80;99.90;;;;;;6257238;22;20107;-86
2022/11/15 13:32:15;;;;;;;3.60;1.92;;;12.70;1.00;;;;;;6262595;22;20042;-89
2022/11/15 13:35:07;;;;;;;4.40;2.05;;;12.70;99.90;;;;;;6261507;22;20038;-87
2022/11/15 13:37:56;;;;;;;5.30;1.85;;;12.80;99.90;;;;;;6265411;22;20016;-85
2022/11/15 13:40:43;;;;;;;2.83;1.80;;;12.80;99.90;;;;;;6255456;22;20084;-87
2022/11/15 13:43:37;;;;;;;4.55;2.50;;;12.70;1.00;;;;;;6279881;22;20031;-87
2022/11/15 13:46:32;;;;;;;4.35;2.00;;;12.50;1.00;;;;;;6299892;22;20011;-87
2022/11/15 13:49:29;;;;;;;3.08;2.00;;;12.30;1.00;;;;;;6277256;22;20135;-87
2022/11/15 13:52:17;;;;;;;5.22;2.13;;;12.10;1.00;;;;;;6298852;22;20015;-88
2022/11/15 13:55:17;;;;;;;6.47;2.28;;;12.00;62.80;;;;;;6281325;22;20008;-87
2022/11/15 13:58:05;;;;;;;4.88;2.35;;;12.00;99.90;;;;;;6280740;22;20012;-85
2022/11/15 14:01:13;;;;;;;5.35;2.30;;;11.90;99.90;;;;;;6300990;22;20008;-87
2022/11/15 14:04:36;;;;;;;;;;;;;;;;;;;;;
2022/11/15 14:08:05;;;;;;;5.60;2.10;;;12.00;1.00;;;;;;6175413;23;20125;-84
2022/11/15 14:11:09;;;;;;;12.90;2.90;;;12.20;1.00;;;;;;6178913;23;20013;-84
2022/11/15 14:14:08;;;;;;;5.72;2.47;;;12.40;1.00;;;;;;6163916;23;20029;-84
2022/11/15 14:17:00;;;;;;;3.80;1.90;;;12.60;1.00;;;;;;6142044;23;20096;-83
2022/11/15 14:19:55;;;;;;;3.70;2.40;;;12.80;99.90;;;;;;6201154;22;20034;-84
2022/11/15 14:22:55;;;;;;;4.53;2.25;;;12.90;99.90;;;;;;6286576;22;20487;-84
2022/11/15 14:26:00;;;;;;;3.85;2.20;;;13.00;99.90;;;;;;6287534;22;20024;-82
2022/11/15 14:28:47;;;;;;;4.30;2.42;;;13.10;99.90;;;;;;6262479;22;20039;-84
2022/11/15 14:31:40;;;;;;;4.82;2.58;;;13.10;99.90;;;;;;6290902;22;20027;-88
2022/11/15 14:34:32;;;;;;;4.78;2.63;;;13.10;99.90;;;;;;6290910;22;20028;-86
2022/11/15 14:37:23;;;;;;;5.03;3.38;;;12.90;99.90;;;;;;6279535;22;20019;-86
2022/11/15 14:40:17;;;;;;;6.10;3.30;;;12.80;99.90;;;;;;6275875;22;20030;-83
2022/11/15 14:43:08;;;;;;;7.00;3.35;;;12.60;99.90;;;;;;6277354;22;20307;-84
2022/11/15 14:45:58;;;;;;;5.95;2.50;;;12.40;99.90;;;;;;6276604;22;20024;-85
2022/11/15 14:48:45;;;;;;;6.70;2.83;;;12.20;99.90;;;;;;6253927;22;20038;-85
2022/11/15 14:51:35;;;;;;;13.23;3.85;;;12.10;99.90;;;;;;6253119;22;20039;-85
2022/11/15 14:54:23;;;;;;;5.97;3.50;;;12.00;99.90;;;;;;6274164;22;20050;-85
2022/11/15 14:57:12;;;;;;;4.78;3.08;;;11.90;1.00;;;;;;6277109;22;20478;-85
2022/11/15 15:00:02;;;;;;;9.32;4.03;;;11.80;1.00;;;;;;6276337;22;20069;-85
2022/11/15 15:02:58;;;;;;;8.10;4.30;;;11.70;1.00;;;;;;6253835;22;20019;-87
2022/11/15 15:05:48;;;;;;;7.30;4.13;;;11.60;99.90;;;;;;6276074;22;20051;-86
2022/11/15 15:08:39;;;;;;;5.68;3.90;;;11.50;99.90;;;;;;6277494;22;20118;-86
2022/11/15 15:11:30;;;;;;;6.43;3.30;;;11.40;99.90;;;;;;6277274;22;20055;-89
2022/11/15 15:14:22;;;;;;;6.68;3.30;;;11.40;99.90;;;;;;6253340;22;20380;-87
2022/11/15 15:17:41;;;;;;;7.15;3.33;;;11.30;99.90;;;;;;6275028;22;20034;-86
2022/11/15 15:20:34;;;;;;;5.50;3.53;;;11.30;99.90;;;;;;6274060;22;20296;-84